Terminal Aerodrome Forecast
Issued by NWS Lubbock, TX

Home | Current Version | Previous Version | Text Only | Print | Product List | Glossary On
Versions: 1 2 3 4 5 6 7 8 9 10 11 12
000
FTUS44 KLUB 301722
TAFLBB
TAF
KLBB 301722Z 3018/3118 16011KT P6SM SCT150 OVC250
     FM302100 21013G20KT P6SM BKN120 OVC250
     FM310100 24009KT P6SM SCT150 BKN250=

USA.gov is the U.S. government's official web portal to all federal, state and local government web resources and services.